createdAt,value
2022-12-16T00:01:27.020Z,11.80
2022-12-16T00:03:55.660Z,12.00
2022-12-16T00:06:24.372Z,12.43
2022-12-16T00:08:52.096Z,12.32
2022-12-16T00:11:20.016Z,10.70
2022-12-16T00:13:48.066Z,11.80
2022-12-16T00:16:16.971Z,11.82
2022-12-16T00:18:44.948Z,10.27
2022-12-16T00:21:12.421Z,11.55
2022-12-16T00:23:41.725Z,12.43
2022-12-16T00:26:09.451Z,13.68
2022-12-16T00:28:37.571Z,15.02
2022-12-16T00:31:05.212Z,17.25
2022-12-16T00:33:33.506Z,18.73
2022-12-16T00:36:01.013Z,19.80
2022-12-16T00:38:28.296Z,20.52
2022-12-16T00:40:55.603Z,19.17
2022-12-16T00:43:23.100Z,17.38
2022-12-16T00:45:50.399Z,15.43
2022-12-16T00:48:19.288Z,15.98
2022-12-16T00:50:49.390Z,17.70
2022-12-16T00:53:20.193Z,17.38
2022-12-16T00:55:47.432Z,16.98
2022-12-16T00:58:14.735Z,17.77
2022-12-16T01:00:42.054Z,16.95
2022-12-16T01:03:09.609Z,17.02
2022-12-16T01:05:38.143Z,16.25
2022-12-16T01:08:05.491Z,14.65
2022-12-16T01:10:32.743Z,14.90
2022-12-16T01:13:00.004Z,15.18
2022-12-16T01:15:27.772Z,15.63
2022-12-16T01:17:55.983Z,14.07
2022-12-16T01:20:23.172Z,13.50
2022-12-16T01:22:50.408Z,13.38
2022-12-16T01:25:18.017Z,12.15
2022-12-16T01:27:45.519Z,11.80
2022-12-16T01:30:13.120Z,12.52
2022-12-16T01:32:40.367Z,11.10
2022-12-16T01:35:29.382Z,11.45
2022-12-16T01:37:56.211Z,11.02
2022-12-16T01:40:23.682Z,11.13
2022-12-16T01:42:51.199Z,9.52
2022-12-16T01:45:33.285Z,9.93
2022-12-16T01:48:04.165Z,12.00
2022-12-16T01:50:31.746Z,10.40
2022-12-16T01:53:00.135Z,9.60
2022-12-16T01:55:48.003Z,10.40
2022-12-16T01:58:26.534Z,10.02
2022-12-16T02:00:54.705Z,9.65
2022-12-16T02:03:22.752Z,9.88
2022-12-16T02:05:50.070Z,10.18
2022-12-16T02:08:19.114Z,11.77
2022-12-16T02:11:04.924Z,11.75
2022-12-16T02:13:35.628Z,11.15
2022-12-16T02:16:17.165Z,11.05
2022-12-16T02:19:26.097Z,11.40
2022-12-16T02:22:15.415Z,10.68
2022-12-16T02:25:17.277Z,11.63
2022-12-16T02:28:04.107Z,10.30
2022-12-16T02:30:56.408Z,10.40
2022-12-16T02:33:29.572Z,11.98
2022-12-16T02:36:24.770Z,10.60
2022-12-16T02:38:59.638Z,10.63
2022-12-16T02:41:48.599Z,10.00
2022-12-16T02:44:16.534Z,11.05
2022-12-16T02:46:52.946Z,9.88
2022-12-16T02:49:23.078Z,9.82
2022-12-16T02:51:50.724Z,9.68
2022-12-16T02:54:18.913Z,10.23
2022-12-16T02:57:04.524Z,12.02
2022-12-16T02:59:34.385Z,11.95
2022-12-16T03:02:13.325Z,12.85
2022-12-16T03:04:43.501Z,10.45
2022-12-16T03:07:12.336Z,11.07
2022-12-16T03:09:40.024Z,11.65
2022-12-16T03:12:10.247Z,11.73
2022-12-16T03:14:38.800Z,10.90
2022-12-16T03:17:07.063Z,12.82
2022-12-16T03:19:34.608Z,12.05
2022-12-16T03:22:09.327Z,11.02
2022-12-16T03:24:36.600Z,12.32
2022-12-16T03:27:41.416Z,12.30
2022-12-16T03:30:09.905Z,11.50
2022-12-16T03:32:45.085Z,15.35
2022-12-16T03:35:26.708Z,15.75
2022-12-16T03:37:55.734Z,14.07
2022-12-16T03:40:23.933Z,14.93
2022-12-16T03:42:52.634Z,13.93
2022-12-16T03:45:23.372Z,12.75
2022-12-16T03:47:51.244Z,35.53
2022-12-16T03:50:24.481Z,27.90
2022-12-16T03:52:51.682Z,25.52
2022-12-16T03:55:19.006Z,23.73
2022-12-16T03:57:46.229Z,23.13
2022-12-16T04:00:15.234Z,20.65
2022-12-16T04:02:43.041Z,24.42
2022-12-16T04:05:10.593Z,27.05
2022-12-16T04:07:38.065Z,33.28
2022-12-16T04:10:05.788Z,25.98
2022-12-16T04:12:52.007Z,19.73
2022-12-16T04:15:38.094Z,21.40
2022-12-16T04:18:35.110Z,17.02
2022-12-16T04:21:21.028Z,16.13
2022-12-16T04:24:14.970Z,15.48
2022-12-16T04:27:00.744Z,14.20
2022-12-16T04:29:27.946Z,15.10
2022-12-16T04:31:55.451Z,15.88
2022-12-16T04:34:25.559Z,15.25
2022-12-16T04:37:16.102Z,14.23
2022-12-16T04:40:02.405Z,15.13
2022-12-16T04:42:48.524Z,15.48
2022-12-16T04:45:34.651Z,16.00
2022-12-16T04:48:20.908Z,19.13
2022-12-16T04:51:06.850Z,17.38
2022-12-16T04:53:53.550Z,15.45
2022-12-16T04:56:39.621Z,14.68
2022-12-16T04:59:25.636Z,13.95
2022-12-16T05:02:11.911Z,12.57
2022-12-16T05:04:57.938Z,13.68
2022-12-16T05:07:44.427Z,13.13
2022-12-16T05:10:30.668Z,14.80
2022-12-16T05:13:16.729Z,14.05
2022-12-16T05:16:02.696Z,19.90
2022-12-16T05:18:48.832Z,27.13
2022-12-16T05:21:34.732Z,25.13
2022-12-16T05:24:20.440Z,20.88
2022-12-16T05:27:06.408Z,20.60
2022-12-16T05:29:52.470Z,18.02
2022-12-16T05:32:38.232Z,17.85
2022-12-16T05:35:24.709Z,13.32
2022-12-16T05:38:10.711Z,14.32
2022-12-16T05:41:03.771Z,14.10
2022-12-16T05:43:57.184Z,12.57
2022-12-16T05:46:43.377Z,12.38
2022-12-16T05:49:29.692Z,11.73
2022-12-16T05:52:15.794Z,9.95
2022-12-16T05:55:03.607Z,13.25
2022-12-16T05:57:49.679Z,12.77
2022-12-16T06:00:35.528Z,11.52
2022-12-16T06:03:21.575Z,11.85
2022-12-16T06:06:07.483Z,12.77
2022-12-16T06:08:53.361Z,12.50
2022-12-16T06:11:39.648Z,12.20
2022-12-16T06:14:25.639Z,12.70
2022-12-16T06:17:11.471Z,14.15
2022-12-16T06:19:57.572Z,14.05
2022-12-16T06:22:43.367Z,11.98
2022-12-16T06:25:29.179Z,12.80
2022-12-16T06:31:43.926Z,11.50
2022-12-16T06:34:29.898Z,12.18
2022-12-16T06:37:17.962Z,11.90
2022-12-16T06:40:03.826Z,12.00
2022-12-16T06:42:49.650Z,12.18
2022-12-16T06:49:43.047Z,12.45
2022-12-16T06:52:29.147Z,13.07
2022-12-16T06:55:15.445Z,11.85
2022-12-16T06:58:01.875Z,14.68
2022-12-16T07:00:49.260Z,13.57
2022-12-16T07:03:36.195Z,14.23
2022-12-16T07:06:22.251Z,14.07
2022-12-16T07:09:08.019Z,16.25
2022-12-16T07:11:54.675Z,15.77
2022-12-16T07:14:42.000Z,15.15
2022-12-16T07:22:26.718Z,13.65
2022-12-16T07:25:12.884Z,11.20
2022-12-16T07:27:58.873Z,12.63
2022-12-16T07:30:44.660Z,12.25
2022-12-16T07:33:30.859Z,13.10
2022-12-16T07:36:17.265Z,12.30
2022-12-16T07:39:03.332Z,12.98
2022-12-16T07:41:49.175Z,12.18
2022-12-16T07:44:35.123Z,12.90
2022-12-16T07:47:20.981Z,12.90
2022-12-16T07:50:06.924Z,12.50
2022-12-16T07:52:52.971Z,14.45
2022-12-16T07:55:41.428Z,12.77
2022-12-16T07:58:28.685Z,14.15
2022-12-16T08:01:14.724Z,13.93
2022-12-16T08:04:00.642Z,13.18
2022-12-16T08:06:46.682Z,15.48
2022-12-16T08:09:35.049Z,12.88
2022-12-16T08:12:21.179Z,12.70
2022-12-16T08:15:07.619Z,14.73
2022-12-16T08:17:54.180Z,15.57
2022-12-16T08:20:41.632Z,15.20
2022-12-16T08:23:27.592Z,16.30
2022-12-16T08:26:13.544Z,15.18
2022-12-16T08:29:13.922Z,16.38
2022-12-16T08:32:06.200Z,15.10
2022-12-16T08:34:52.363Z,14.70
2022-12-16T08:37:40.446Z,13.68
2022-12-16T08:40:35.209Z,13.27
2022-12-16T08:43:21.359Z,14.65
2022-12-16T08:46:24.101Z,13.90
2022-12-16T08:49:10.623Z,13.23
2022-12-16T08:51:56.821Z,14.82
2022-12-16T08:54:42.762Z,14.02
2022-12-16T08:57:28.699Z,13.73
2022-12-16T09:00:14.445Z,13.32
2022-12-16T09:03:00.818Z,12.30
2022-12-16T09:05:46.648Z,12.15
2022-12-16T09:08:32.634Z,10.60
2022-12-16T09:11:19.732Z,11.45
2022-12-16T09:14:05.622Z,10.45
2022-12-16T09:16:54.132Z,9.88
2022-12-16T09:19:41.109Z,10.52
2022-12-16T09:22:26.887Z,11.55
2022-12-16T09:25:13.284Z,11.63
2022-12-16T09:27:59.788Z,11.98
2022-12-16T09:30:46.013Z,12.80
2022-12-16T09:33:32.412Z,12.45
2022-12-16T09:36:18.873Z,12.52
2022-12-16T09:39:04.666Z,11.93
2022-12-16T09:42:04.308Z,12.00
2022-12-16T09:45:17.175Z,11.20
2022-12-16T09:48:09.619Z,10.82
2022-12-16T09:50:57.137Z,11.27
2022-12-16T09:53:42.978Z,13.15
2022-12-16T09:56:50.545Z,13.02
2022-12-16T09:59:46.443Z,11.70
2022-12-16T10:02:33.012Z,12.02
2022-12-16T10:05:19.581Z,13.40
2022-12-16T10:08:19.593Z,11.68
2022-12-16T10:11:19.398Z,12.38
2022-12-16T10:14:17.645Z,10.93
2022-12-16T10:17:08.297Z,12.18
2022-12-16T10:20:13.634Z,12.38
2022-12-16T10:23:22.783Z,11.52
2022-12-16T10:26:11.570Z,11.52
2022-12-16T10:29:08.118Z,10.80
2022-12-16T10:31:54.371Z,10.75
2022-12-16T10:34:46.840Z,10.77
2022-12-16T10:40:20.615Z,8.05
2022-12-16T10:43:08.634Z,9.02
2022-12-16T10:46:04.962Z,9.35
2022-12-16T10:48:56.199Z,9.02
2022-12-16T10:51:44.964Z,9.60
2022-12-16T10:54:40.223Z,8.85
2022-12-16T10:57:56.627Z,7.97
2022-12-16T11:01:08.115Z,8.48
2022-12-16T11:03:55.599Z,7.15
2022-12-16T11:06:45.752Z,8.05
2022-12-16T11:09:41.797Z,7.82
2022-12-16T11:12:44.216Z,9.02
2022-12-16T11:15:47.342Z,8.75
2022-12-16T11:18:38.282Z,8.40
2022-12-16T11:21:30.131Z,9.60
2022-12-16T11:24:35.356Z,8.38
2022-12-16T11:27:44.228Z,8.70
2022-12-16T11:30:42.612Z,9.68
2022-12-16T11:33:34.003Z,9.20
2022-12-16T11:39:16.914Z,8.35
2022-12-16T11:42:06.049Z,6.97
2022-12-16T11:45:00.287Z,6.93
2022-12-16T11:47:59.780Z,6.93
2022-12-16T11:50:47.112Z,6.10
2022-12-16T11:53:49.198Z,7.18
2022-12-16T11:56:39.258Z,6.47
2022-12-16T11:59:46.638Z,6.50
2022-12-16T12:02:54.456Z,6.95
2022-12-16T12:05:52.087Z,7.07
2022-12-16T12:08:57.849Z,6.88
2022-12-16T12:11:49.359Z,6.03
2022-12-16T12:14:44.326Z,6.05
2022-12-16T12:17:48.619Z,6.95
2022-12-16T12:21:18.023Z,7.95
2022-12-16T12:24:31.585Z,7.07
2022-12-16T12:27:43.795Z,7.03
2022-12-16T12:30:34.556Z,8.35
2022-12-16T12:33:51.555Z,7.37
2022-12-16T12:36:59.100Z,8.35
2022-12-16T12:40:04.973Z,6.72
2022-12-16T12:42:55.067Z,6.90
2022-12-16T12:45:49.252Z,7.40
2022-12-16T12:48:57.834Z,7.07
2022-12-16T12:52:00.276Z,8.20
2022-12-16T12:54:54.022Z,7.57
2022-12-16T12:57:42.342Z,6.75
2022-12-16T13:00:34.365Z,6.78
2022-12-16T13:03:28.784Z,7.55
2022-12-16T13:06:14.855Z,8.55
2022-12-16T13:09:19.593Z,7.90
2022-12-16T13:12:34.461Z,7.93
2022-12-16T13:15:25.594Z,7.90
2022-12-16T13:18:18.229Z,7.80
2022-12-16T13:21:05.437Z,7.15
2022-12-16T13:24:00.778Z,6.95
2022-12-16T13:26:48.624Z,7.28
2022-12-16T13:29:42.627Z,8.38
2022-12-16T13:32:28.520Z,9.35
2022-12-16T13:35:20.769Z,8.38
2022-12-16T13:38:23.613Z,8.45
2022-12-16T13:41:22.997Z,9.02
2022-12-16T13:44:15.318Z,7.70
2022-12-16T13:47:07.987Z,8.48
2022-12-16T13:50:09.820Z,8.00
2022-12-16T13:52:58.882Z,9.45
2022-12-16T13:56:12.624Z,7.93
2022-12-16T13:59:01.421Z,7.85
2022-12-16T14:02:00.419Z,8.50
2022-12-16T14:05:19.125Z,8.63
2022-12-16T14:08:05.682Z,12.20
2022-12-16T14:10:54.091Z,12.93
2022-12-16T14:14:05.077Z,12.60
2022-12-16T14:17:03.015Z,15.55
2022-12-16T14:20:07.389Z,15.02
2022-12-16T14:22:59.939Z,13.18
2022-12-16T14:25:46.227Z,14.27
2022-12-16T14:28:41.991Z,14.20
2022-12-16T14:31:41.499Z,10.40
2022-12-16T14:34:38.313Z,10.20
2022-12-16T14:37:35.691Z,9.07
2022-12-16T14:40:23.017Z,10.27
2022-12-16T14:43:12.930Z,9.00
2022-12-16T14:46:00.193Z,9.50
2022-12-16T14:48:51.263Z,8.93
2022-12-16T14:54:39.093Z,9.98
2022-12-16T15:00:28.649Z,10.32
2022-12-16T15:03:34.129Z,11.30
2022-12-16T15:06:22.179Z,11.88
2022-12-16T15:09:13.152Z,11.43
2022-12-16T15:11:59.244Z,10.52
2022-12-16T15:14:48.762Z,10.32
2022-12-16T15:18:10.678Z,11.73
2022-12-16T15:23:49.113Z,9.50
2022-12-16T15:26:39.236Z,9.15
2022-12-16T15:29:48.470Z,9.38
2022-12-16T15:32:43.533Z,10.50
2022-12-16T15:35:45.326Z,10.52
2022-12-16T15:38:44.666Z,10.27
2022-12-16T15:42:01.572Z,9.15
2022-12-16T15:44:48.090Z,9.50
2022-12-16T15:47:52.837Z,10.70
2022-12-16T15:50:45.356Z,9.48
2022-12-16T15:53:34.621Z,11.48
2022-12-16T15:56:20.749Z,11.02
2022-12-16T15:59:26.823Z,10.70
2022-12-16T16:02:13.825Z,9.52
2022-12-16T16:04:59.940Z,10.90
2022-12-16T16:07:46.738Z,8.88
2022-12-16T16:10:34.044Z,8.75
2022-12-16T16:13:20.784Z,10.13
2022-12-16T16:16:06.809Z,11.98
2022-12-16T16:18:53.659Z,11.27
2022-12-16T16:21:39.477Z,11.82
2022-12-16T16:24:25.659Z,12.25
2022-12-16T16:27:15.258Z,14.23
2022-12-16T16:30:01.045Z,14.48
2022-12-16T16:32:47.120Z,13.57
2022-12-16T16:35:33.444Z,12.60
2022-12-16T16:38:19.503Z,13.90
2022-12-16T16:41:05.422Z,14.80
2022-12-16T16:43:51.557Z,13.27
2022-12-16T16:47:00.436Z,11.68
2022-12-16T16:49:54.637Z,14.05
2022-12-16T16:52:41.919Z,12.88
2022-12-16T16:55:36.574Z,11.13
2022-12-16T16:58:38.193Z,10.13
2022-12-16T17:01:24.687Z,8.80
2022-12-16T17:04:10.947Z,9.10
2022-12-16T17:06:56.987Z,10.43
2022-12-16T17:09:42.897Z,11.35
2022-12-16T17:12:42.310Z,11.98
2022-12-16T17:15:31.308Z,10.40
2022-12-16T17:18:17.389Z,11.52
2022-12-16T17:21:03.325Z,9.93
2022-12-16T17:23:49.222Z,9.52
2022-12-16T17:26:35.250Z,9.20
2022-12-16T17:29:21.224Z,8.50
2022-12-16T17:32:07.544Z,8.52
2022-12-16T17:34:53.448Z,7.88
2022-12-16T17:37:39.232Z,7.40
2022-12-16T17:40:25.757Z,6.63
2022-12-16T17:43:11.907Z,8.73
2022-12-16T17:45:57.973Z,7.05
2022-12-16T17:48:45.661Z,8.25
2022-12-16T17:51:31.780Z,6.85
2022-12-16T17:54:23.709Z,6.65
2022-12-16T17:57:11.068Z,6.55
2022-12-16T17:59:57.351Z,7.20
2022-12-16T18:02:43.503Z,5.82
2022-12-16T18:05:37.696Z,5.82
2022-12-16T18:08:27.213Z,7.75
2022-12-16T18:11:14.169Z,6.72
2022-12-16T18:14:00.113Z,6.57
2022-12-16T18:16:46.102Z,7.43
2022-12-16T18:19:33.268Z,7.00
2022-12-16T18:22:19.522Z,8.45
2022-12-16T18:25:05.731Z,9.40
2022-12-16T18:27:51.586Z,11.48
2022-12-16T18:30:37.607Z,10.77
2022-12-16T18:33:23.494Z,11.15
2022-12-16T18:36:09.593Z,9.73
2022-12-16T18:38:55.547Z,6.40
2022-12-16T18:41:41.527Z,5.90
2022-12-16T18:44:28.941Z,6.60
2022-12-16T18:47:14.772Z,5.72
2022-12-16T18:50:00.954Z,5.90
2022-12-16T18:52:47.445Z,4.85
2022-12-16T18:55:33.844Z,6.25
2022-12-16T18:58:50.669Z,6.10
2022-12-16T19:01:27.380Z,4.07
2022-12-16T19:04:14.608Z,6.05
2022-12-16T19:07:00.920Z,4.90
2022-12-16T19:09:47.012Z,4.90
2022-12-16T19:12:33.047Z,5.07
2022-12-16T19:15:20.430Z,4.78
2022-12-16T19:18:08.676Z,4.75
2022-12-16T19:20:56.752Z,5.38
2022-12-16T19:23:42.814Z,5.53
2022-12-16T19:26:28.852Z,5.15
2022-12-16T19:29:15.976Z,5.25
2022-12-16T19:32:05.571Z,5.75
2022-12-16T19:34:52.111Z,5.30
2022-12-16T19:40:40.181Z,5.03
2022-12-16T19:43:25.953Z,5.65
